createdAt,value
2018-08-30T00:03:20.702Z,14.53
2018-08-30T00:08:15.226Z,15.07
2018-08-30T00:13:09.832Z,17.93
2018-08-30T00:18:04.318Z,15.30
2018-08-30T00:22:58.886Z,15.13
2018-08-30T00:27:53.576Z,16.83
2018-08-30T00:32:48.147Z,12.83
2018-08-30T00:37:42.614Z,14.33
2018-08-30T00:42:37.138Z,15.87
2018-08-30T00:47:31.591Z,17.63
2018-08-30T00:52:26.063Z,16.07
2018-08-30T00:57:20.718Z,19.43
2018-08-30T01:02:15.653Z,21.00
2018-08-30T01:07:11.293Z,20.57
2018-08-30T01:12:06.120Z,24.77
2018-08-30T01:17:01.010Z,23.57
2018-08-30T01:21:55.703Z,27.53
2018-08-30T01:26:50.186Z,29.63
2018-08-30T01:31:45.471Z,30.50
2018-08-30T01:36:40.872Z,28.53
2018-08-30T01:41:35.685Z,35.57
2018-08-30T01:46:30.980Z,31.27
2018-08-30T01:51:25.580Z,33.13
2018-08-30T01:56:20.241Z,33.60
2018-08-30T02:01:15.245Z,31.23
2018-08-30T02:06:10.083Z,34.00
2018-08-30T02:11:04.576Z,32.60
2018-08-30T02:15:59.206Z,36.20
2018-08-30T02:20:53.930Z,35.67
2018-08-30T02:25:48.604Z,35.53
2018-08-30T02:30:43.800Z,31.90
2018-08-30T02:35:38.544Z,34.93
2018-08-30T02:40:32.992Z,35.90
2018-08-30T02:45:27.637Z,34.90
2018-08-30T02:50:22.180Z,37.50
2018-08-30T02:55:16.676Z,38.10
2018-08-30T03:00:11.745Z,33.20
2018-08-30T03:05:06.553Z,37.17
2018-08-30T03:10:01.379Z,37.80
2018-08-30T03:15:12.279Z,33.50
2018-08-30T03:20:09.204Z,32.93
2018-08-30T03:25:04.936Z,37.13
2018-08-30T03:29:59.838Z,41.77
2018-08-30T03:34:54.382Z,38.87
2018-08-30T03:39:49.438Z,39.67
2018-08-30T03:44:43.974Z,37.20
2018-08-30T03:49:38.738Z,39.50
2018-08-30T03:54:33.244Z,39.97
2018-08-30T03:59:28.004Z,41.37
2018-08-30T04:04:22.488Z,42.27
2018-08-30T04:09:17.145Z,35.33
2018-08-30T04:14:11.610Z,39.40
2018-08-30T04:19:07.486Z,39.03
2018-08-30T04:24:02.739Z,41.47
2018-08-30T04:28:57.334Z,38.37
2018-08-30T04:33:52.182Z,41.67
2018-08-30T04:38:46.948Z,43.17
2018-08-30T04:43:41.537Z,42.63
2018-08-30T04:48:36.280Z,39.47
2018-08-30T04:53:30.763Z,42.17
2018-08-30T04:58:25.292Z,45.63
2018-08-30T05:03:19.762Z,41.77
2018-08-30T05:08:14.242Z,43.97
2018-08-30T05:13:09.033Z,39.13
2018-08-30T05:18:03.539Z,40.93
2018-08-30T05:22:58.339Z,43.00
2018-08-30T05:27:53.454Z,41.10
2018-08-30T05:32:48.505Z,38.73
2018-08-30T05:37:42.960Z,39.97
2018-08-30T05:42:37.631Z,39.40
2018-08-30T05:47:32.180Z,35.80
2018-08-30T05:52:27.018Z,39.90
2018-08-30T05:57:21.605Z,34.10
2018-08-30T06:02:16.081Z,37.30
2018-08-30T06:07:10.766Z,32.97
2018-08-30T06:12:05.237Z,37.43
2018-08-30T06:17:00.317Z,33.13
2018-08-30T06:21:54.881Z,35.50
2018-08-30T06:26:49.827Z,39.13
2018-08-30T06:31:44.384Z,32.63
2018-08-30T06:36:39.082Z,27.23
2018-08-30T06:41:33.624Z,32.30
2018-08-30T06:46:28.476Z,32.63
2018-08-30T06:51:23.067Z,29.63
2018-08-30T06:56:18.289Z,26.70
2018-08-30T07:01:13.470Z,28.77
2018-08-30T07:06:08.627Z,24.67
2018-08-30T07:11:03.082Z,20.27
2018-08-30T07:15:57.617Z,24.50
2018-08-30T07:20:52.755Z,20.73
2018-08-30T07:25:49.019Z,18.77
2018-08-30T07:30:43.982Z,20.23
2018-08-30T07:35:38.552Z,23.50
2018-08-30T07:40:33.037Z,15.57
2018-08-30T07:45:27.650Z,18.40
2018-08-30T07:50:22.180Z,16.07
2018-08-30T07:55:16.859Z,14.63
2018-08-30T08:00:11.842Z,14.03
2018-08-30T08:05:06.610Z,18.27
2018-08-30T08:10:01.380Z,13.33
2018-08-30T08:14:55.848Z,11.63
2018-08-30T08:19:50.534Z,10.78
2018-08-30T08:24:45.302Z,10.30
2018-08-30T08:29:40.278Z,6.53
2018-08-30T08:34:34.979Z,9.67
2018-08-30T08:39:30.057Z,10.90
2018-08-30T08:44:25.472Z,9.20
2018-08-30T08:49:20.285Z,9.33
2018-08-30T08:54:15.075Z,7.93
2018-08-30T08:59:10.259Z,9.67
2018-08-30T09:04:05.333Z,8.83
2018-08-30T09:09:00.122Z,6.10
2018-08-30T09:13:55.128Z,9.70
2018-08-30T09:18:49.845Z,6.90
2018-08-30T09:23:45.114Z,5.60
2018-08-30T09:28:39.897Z,6.27
2018-08-30T09:33:34.673Z,7.37
2018-08-30T09:38:29.574Z,6.37
2018-08-30T09:43:24.300Z,8.07
2018-08-30T09:48:19.072Z,10.47
2018-08-30T09:53:13.833Z,6.53
2018-08-30T09:58:08.988Z,6.70
2018-08-30T10:03:03.697Z,5.90
2018-08-30T10:07:58.471Z,6.83
2018-08-30T10:12:53.614Z,5.93
2018-08-30T10:17:48.346Z,6.10
2018-08-30T10:22:43.082Z,5.40
2018-08-30T10:27:38.293Z,10.23
2018-08-30T10:32:33.487Z,7.87
2018-08-30T10:37:28.573Z,6.83
2018-08-30T10:42:23.128Z,7.17
2018-08-30T10:47:17.631Z,6.17
2018-08-30T10:52:12.473Z,9.13
2018-08-30T10:57:07.198Z,5.30
2018-08-30T11:02:01.688Z,5.57
2018-08-30T11:06:56.446Z,8.47
2018-08-30T11:11:51.040Z,5.13
2018-08-30T11:16:45.655Z,5.70
2018-08-30T11:21:40.226Z,6.53
2018-08-30T11:26:34.823Z,5.60
2018-08-30T11:31:29.302Z,9.27
2018-08-30T11:36:23.752Z,5.47
2018-08-30T11:41:18.413Z,5.80
2018-08-30T11:46:13.032Z,8.77
2018-08-30T11:51:08.735Z,7.07
2018-08-30T11:56:03.703Z,4.00
2018-08-30T12:00:58.650Z,4.60
2018-08-30T12:05:53.817Z,4.23
2018-08-30T12:10:48.871Z,5.67
2018-08-30T12:15:43.653Z,5.50
2018-08-30T12:20:38.315Z,4.73
2018-08-30T12:25:32.997Z,6.67
2018-08-30T12:30:27.706Z,4.37
2018-08-30T12:35:22.634Z,4.63
2018-08-30T12:40:18.006Z,5.20
2018-08-30T12:45:12.523Z,9.80
2018-08-30T12:50:07.560Z,5.10
2018-08-30T12:55:02.611Z,5.87
2018-08-30T12:59:57.186Z,5.00
2018-08-30T13:04:51.953Z,5.63
2018-08-30T13:09:47.021Z,4.83
2018-08-30T13:14:41.966Z,5.87
2018-08-30T13:19:36.754Z,4.93
2018-08-30T13:24:31.358Z,4.63
2018-08-30T13:29:26.216Z,6.57
2018-08-30T13:34:21.081Z,5.37
2018-08-30T13:39:16.344Z,3.73
2018-08-30T13:44:12.044Z,4.70
2018-08-30T13:49:07.237Z,6.77
2018-08-30T13:54:01.860Z,6.33
2018-08-30T13:58:56.496Z,6.27
2018-08-30T14:03:51.071Z,5.20
2018-08-30T14:08:46.154Z,5.03
2018-08-30T14:13:41.323Z,8.33
2018-08-30T14:18:35.718Z,7.03
2018-08-30T14:23:30.569Z,4.27
2018-08-30T14:28:25.071Z,8.40
2018-08-30T14:33:20.018Z,4.03
2018-08-30T14:38:14.900Z,5.83
2018-08-30T14:43:09.870Z,4.73
2018-08-30T14:48:04.414Z,4.43
2018-08-30T14:52:59.225Z,4.17
2018-08-30T14:57:53.838Z,4.33
2018-08-30T15:02:48.635Z,6.30
2018-08-30T15:07:43.299Z,8.07
2018-08-30T15:12:38.209Z,5.60
2018-08-30T15:17:33.574Z,7.60
2018-08-30T15:22:29.912Z,3.80
2018-08-30T15:27:24.418Z,4.27
2018-08-30T15:32:19.113Z,5.90
2018-08-30T15:37:13.564Z,6.40
2018-08-30T15:42:08.388Z,5.07
2018-08-30T15:47:03.352Z,4.07
2018-08-30T15:51:57.908Z,4.43
2018-08-30T15:56:52.366Z,5.83
2018-08-30T16:01:46.936Z,7.13
2018-08-30T16:06:41.641Z,6.63
2018-08-30T16:11:36.640Z,5.67
2018-08-30T16:16:31.336Z,13.33
2018-08-30T16:21:25.960Z,6.03
2018-08-30T16:26:20.642Z,6.00
2018-08-30T16:31:15.263Z,6.13
2018-08-30T16:36:10.073Z,6.90
2018-08-30T16:41:06.601Z,4.87
2018-08-30T16:46:02.505Z,5.33
2018-08-30T16:50:57.048Z,5.07
2018-08-30T16:55:51.760Z,5.33
2018-08-30T17:00:46.409Z,5.53
2018-08-30T17:05:41.649Z,3.43
2018-08-30T17:10:36.865Z,5.07
2018-08-30T17:15:31.618Z,4.83
2018-08-30T17:20:47.379Z,3.40
2018-08-30T17:25:42.926Z,4.87
2018-08-30T17:30:37.651Z,3.67
2018-08-30T17:35:32.271Z,6.90
2018-08-30T17:40:26.838Z,5.33
2018-08-30T17:45:21.681Z,3.97
2018-08-30T17:50:18.459Z,4.63
2018-08-30T17:55:13.796Z,4.77
2018-08-30T18:00:11.895Z,4.33
2018-08-30T18:05:07.126Z,10.17
2018-08-30T18:10:02.976Z,4.70
2018-08-30T18:14:57.426Z,4.83
2018-08-30T18:29:19.176Z,6.33
2018-08-30T18:34:16.217Z,7.50
2018-08-30T18:39:13.631Z,4.77
2018-08-30T18:44:10.106Z,8.33
2018-08-30T18:49:07.569Z,5.80
2018-08-30T18:54:04.261Z,14.97
2018-08-30T18:59:00.914Z,6.47
2018-08-30T19:03:58.147Z,5.27
2018-08-30T19:08:52.674Z,6.90
2018-08-30T19:13:47.184Z,12.17
2018-08-30T19:18:46.877Z,9.43
2018-08-30T19:23:41.330Z,5.73
2018-08-30T19:28:35.889Z,12.93
2018-08-30T19:33:30.681Z,6.57
2018-08-30T19:38:25.276Z,5.77
2018-08-30T19:43:19.938Z,7.03
2018-08-30T19:48:14.431Z,9.70
2018-08-30T19:53:09.599Z,4.17
2018-08-30T19:58:04.053Z,6.37
2018-08-30T20:02:58.727Z,4.87
2018-08-30T20:07:53.176Z,5.87
2018-08-30T20:12:48.099Z,4.70
2018-08-30T20:17:42.795Z,5.73
2018-08-30T20:22:37.284Z,4.10
2018-08-30T20:27:31.931Z,5.17
2018-08-30T20:32:26.420Z,8.47
2018-08-30T20:37:21.630Z,8.00
2018-08-30T20:42:16.100Z,8.70
2018-08-30T20:47:10.594Z,4.83
2018-08-30T20:52:05.227Z,4.20
2018-08-30T20:56:59.782Z,6.93
2018-08-30T21:01:54.312Z,6.13
2018-08-30T21:06:48.918Z,7.47
2018-08-30T21:11:43.581Z,6.57
2018-08-30T21:16:38.195Z,8.17
2018-08-30T21:21:33.215Z,8.77
2018-08-30T21:26:27.678Z,5.37
2018-08-30T21:31:23.589Z,7.30
2018-08-30T21:36:18.519Z,8.60
2018-08-30T21:41:13.239Z,10.43
2018-08-30T21:46:08.571Z,9.87
2018-08-30T21:51:03.748Z,10.93
2018-08-30T21:55:59.132Z,9.40
2018-08-30T22:00:54.352Z,13.03
2018-08-30T22:05:51.634Z,10.67
2018-08-30T22:10:47.604Z,9.47
2018-08-30T22:15:42.336Z,9.03
2018-08-30T22:20:37.117Z,9.53
2018-08-30T22:25:33.955Z,6.97
2018-08-30T22:30:31.222Z,12.57
2018-08-30T22:35:26.408Z,13.70
2018-08-30T22:40:21.046Z,10.97
2018-08-30T22:45:15.846Z,9.27
2018-08-30T22:50:10.963Z,12.20
2018-08-30T22:55:05.486Z,8.67
2018-08-30T23:00:00.124Z,11.97
2018-08-30T23:04:55.026Z,8.97
2018-08-30T23:09:49.881Z,9.67
2018-08-30T23:14:45.064Z,10.30
2018-08-30T23:19:39.825Z,11.03
2018-08-30T23:24:34.498Z,8.47
2018-08-30T23:29:29.342Z,9.77
2018-08-30T23:34:24.248Z,11.73
2018-08-30T23:39:19.194Z,7.10
2018-08-30T23:44:14.871Z,7.70
2018-08-30T23:49:10.237Z,11.27
2018-08-30T23:54:04.886Z,8.47
2018-08-30T23:59:16.590Z,8.90
